Time;durP1;ratioP1;P1;durP2;ratioP2;P2;SDS_P1;SDS_P2;PMS_P1;PMS_P2;Temp;Humidity;BMP_temperature;BMP_pressure;BME280_temperature;BME280_humidity;BME280_pressure;Samples;Min_cycle;Max_cycle;Signal;HPM_P1;HPM_P2
2022/03/31 00:00:18;;;;;;;;;;;;;;;21.18;40.81;100387.84;7286097;19;152195;-57
2022/03/31 00:02:45;;;;;;;;;;;;;;;21.16;40.55;100404.22;7277447;19;154063;-57
2022/03/31 00:05:13;;;;;;;;;;;;;;;21.15;40.70;100408.16;7279606;19;151890;-57
2022/03/31 00:07:57;;;;;;;;;;;;;;;21.13;40.62;100407.66;7279285;19;152543;-57
2022/03/31 00:10:28;;;;;;;;;;;;;;;21.11;40.66;100395.91;7276487;19;153319;-57
2022/03/31 00:12:56;;;;;;;;;;;;;;;21.08;41.08;100393.72;7277457;19;151793;-58
2022/03/31 00:15:24;;;;;;;;;;;;;;;21.07;40.80;100389.28;7276284;19;152664;-57
2022/03/31 00:17:50;;;;;;;;;;;;;;;21.05;41.24;100398.03;7278224;19;153231;-57
2022/03/31 00:20:17;;;;;;;;;;;;;;;21.04;41.41;100401.97;7286290;19;152063;-57
2022/03/31 00:22:44;;;;;;;;;;;;;;;21.03;41.13;100407.94;7278113;19;153201;-57
2022/03/31 00:25:11;;;;;;;;;;;;;;;21.01;41.41;100401.81;7278197;19;152031;-57
2022/03/31 00:27:38;;;;;;;;;;;;;;;21.00;41.37;100397.34;7279413;19;153477;-57
2022/03/31 00:30:05;;;;;;;;;;;;;;;20.98;41.44;100394.03;7277177;19;153402;-57
2022/03/31 00:32:32;;;;;;;;;;;;;;;20.96;41.01;100393.53;7278730;19;152407;-57
2022/03/31 00:34:59;;;;;;;;;;;;;;;20.96;41.29;100393.53;7277741;19;152866;-56
2022/03/31 00:37:27;;;;;;;;;;;;;;;20.94;41.70;100393.84;7277211;19;154243;-57
2022/03/31 00:39:54;;;;;;;;;;;;;;;20.91;41.51;100399.28;7275635;19;151777;-57
2022/03/31 00:42:22;;;;;;;;;;;;;;;20.89;41.46;100408.03;7285169;19;152723;-57
2022/03/31 00:44:49;;;;;;;;;;;;;;;20.88;41.58;100411.16;7277853;19;152798;-58
2022/03/31 00:47:17;;;;;;;;;;;;;;;20.85;41.82;100407.84;7276568;19;152878;-57
2022/03/31 00:49:44;;;;;;;;;;;;;;;20.84;41.45;100411.00;7275994;19;153971;-57
2022/03/31 00:52:12;;;;;;;;;;;;;;;20.83;41.62;100417.75;7278058;19;151924;-57
2022/03/31 00:54:42;;;;;;;;;;;;;;;20.82;41.39;100416.94;7277683;19;152800;-58
2022/03/31 00:57:12;;;;;;;;;;;;;;;20.80;41.80;100405.19;7276726;19;153237;-57
2022/03/31 00:59:39;;;;;;;;;;;;;;;20.78;42.00;100413.13;7274389;19;152229;-57
2022/03/31 01:02:06;;;;;;;;;;;;;;;20.78;41.71;100410.31;7278120;19;152604;-57
2022/03/31 01:04:34;;;;;;;;;;;;;;;20.75;42.38;100399.72;7283012;19;153858;-56
2022/03/31 01:07:01;;;;;;;;;;;;;;;20.78;42.07;100398.25;7276773;19;153498;-57
2022/03/31 01:09:29;;;;;;;;;;;;;;;20.76;41.93;100395.75;7275436;19;154085;-57
2022/03/31 01:11:56;;;;;;;;;;;;;;;20.76;42.57;100389.31;7278062;19;152253;-57
2022/03/31 01:14:23;;;;;;;;;;;;;;;20.73;42.33;100398.38;7276807;19;153537;-57
2022/03/31 01:16:49;;;;;;;;;;;;;;;20.73;42.69;100387.97;7273327;19;153428;-56
2022/03/31 01:19:17;;;;;;;;;;;;;;;20.72;42.01;100394.75;7275277;19;153047;-57
2022/03/31 01:21:45;;;;;;;;;;;;;;;20.68;42.20;100390.94;7276539;19;152715;-58
2022/03/31 01:24:17;;;;;;;;;;;;;;;20.47;35.87;100383.38;7276651;19;154252;-59
2022/03/31 01:26:44;;;;;;;;;;;;;;;20.35;38.57;100381.19;7283707;19;152412;-57
2022/03/31 01:29:10;;;;;;;;;;;;;;;20.42;39.42;100378.75;7276090;19;153345;-57
2022/03/31 01:31:38;;;;;;;;;;;;;;;20.40;39.69;100376.25;7273633;19;152004;-57
2022/03/31 01:34:07;;;;;;;;;;;;;;;20.44;40.12;100370.00;7274363;19;152652;-57
2022/03/31 01:36:34;;;;;;;;;;;;;;;20.39;40.26;100374.63;7276296;19;153635;-57
2022/03/31 01:39:01;;;;;;;;;;;;;;;20.36;40.41;100385.63;7251905;19;153018;-58
2022/03/31 01:41:29;;;;;;;;;;;;;;;20.34;40.80;100385.97;7259897;19;153356;-57
2022/03/31 01:43:56;;;;;;;;;;;;;;;20.37;40.85;100381.69;7271370;19;154175;-58
2022/03/31 01:46:26;;;;;;;;;;;;;;;20.33;40.87;100389.09;7274578;19;151857;-58
2022/03/31 01:48:53;;;;;;;;;;;;;;;20.30;40.57;100389.75;7281386;19;153315;-58
2022/03/31 01:51:19;;;;;;;;;;;;;;;20.26;40.64;100394.31;7272048;19;151978;-58
2022/03/31 01:53:47;;;;;;;;;;;;;;;20.25;40.71;100389.84;7275484;19;153008;-57
2022/03/31 01:56:14;;;;;;;;;;;;;;;20.18;40.71;100384.66;7271857;19;153933;-57
2022/03/31 01:58:40;;;;;;;;;;;;;;;20.18;40.94;100386.63;7273813;19;152943;-56
2022/03/31 02:01:07;;;;;;;;;;;;;;;20.18;40.60;100384.66;7272172;19;153408;-56
2022/03/31 02:03:34;;;;;;;;;;;;;;;20.18;40.61;100384.66;7271284;19;153866;-56
2022/03/31 02:06:01;;;;;;;;;;;;;;;20.18;40.58;100392.25;7274962;19;152348;-56
2022/03/31 02:08:29;;;;;;;;;;;;;;;20.16;40.57;100380.53;7274089;19;153026;-57
2022/03/31 02:10:55;;;;;;;;;;;;;;;20.16;40.88;100381.38;7280383;19;154068;-57
2022/03/31 02:13:22;;;;;;;;;;;;;;;20.16;41.03;100383.34;7271883;19;153958;-57
2022/03/31 02:15:49;;;;;;;;;;;;;;;20.10;40.71;100379.84;7272875;19;153551;-57
2022/03/31 02:18:16;;;;;;;;;;;;;;;20.12;41.09;100382.31;7274251;19;152418;-57
2022/03/31 02:20:42;;;;;;;;;;;;;;;20.11;40.97;100378.69;7279912;19;153579;-57
2022/03/31 02:23:09;;;;;;;;;;;;;;;20.10;40.89;100384.59;7281744;19;153353;-57
2022/03/31 02:25:36;;;;;;;;;;;;;;;20.08;41.34;100376.50;7280683;19;152067;-57
2022/03/31 02:28:02;;;;;;;;;;;;;;;20.06;41.26;100386.41;7279225;19;153431;-58
2022/03/31 02:30:29;;;;;;;;;;;;;;;20.04;41.17;100388.69;7287213;19;152175;-57
2022/03/31 02:32:56;;;;;;;;;;;;;;;20.03;41.28;100387.03;7281760;19;152644;-57
2022/03/31 02:35:23;;;;;;;;;;;;;;;20.01;41.23;100395.75;7278353;19;153782;-58
2022/03/31 02:37:50;;;;;;;;;;;;;;;20.01;41.47;100390.16;7281955;19;152188;-59
2022/03/31 02:40:16;;;;;;;;;;;;;;;20.01;41.24;100398.56;7279312;19;153135;-58
2022/03/31 02:42:44;;;;;;;;;;;;;;;19.97;41.32;100391.94;7280336;19;154014;-57
2022/03/31 02:45:10;;;;;;;;;;;;;;;19.97;41.73;100387.16;7281549;19;152644;-58
2022/03/31 02:47:37;;;;;;;;;;;;;;;19.94;41.80;100396.19;7279113;19;152621;-57
2022/03/31 02:50:05;;;;;;;;;;;;;;;19.93;42.02;100388.97;7279572;19;153795;-57
2022/03/31 02:55:24;;;;;;;;;;;;;;;19.93;41.62;100393.72;7288577;19;152364;-57
2022/03/31 02:55:30;;;;;;;;;;;;;;;19.90;41.66;100392.38;7280405;19;153220;-57
2022/03/31 02:58:00;;;;;;;;;;;;;;;19.87;41.68;100387.41;7281435;19;152297;-57
2022/03/31 03:00:28;;;;;;;;;;;;;;;19.87;42.03;100400.59;7279679;19;153136;-57
2022/03/31 03:02:55;;;;;;;;;;;;;;;19.86;42.01;100396.97;7280391;19;153564;-57
2022/03/31 03:05:21;;;;;;;;;;;;;;;19.86;42.19;100394.16;7280367;19;152081;-57
2022/03/31 03:07:48;;;;;;;;;;;;;;;19.85;41.94;100388.88;7281417;19;152598;-57
2022/03/31 03:10:15;;;;;;;;;;;;;;;19.83;42.29;100385.56;7278809;19;153278;-57
2022/03/31 03:12:42;;;;;;;;;;;;;;;19.80;42.17;100378.63;7279571;19;151797;-57
2022/03/31 03:15:09;;;;;;;;;;;;;;;19.77;42.24;100384.84;7284745;19;153681;-56
2022/03/31 03:17:40;;;;;;;;;;;;;;;19.73;42.58;100383.81;7280798;19;152202;-56
2022/03/31 03:20:08;;;;;;;;;;;;;;;19.75;42.20;100380.72;7278079;19;153378;-56
2022/03/31 03:22:34;;;;;;;;;;;;;;;19.73;42.25;100388.59;7279092;19;154856;-56
2022/03/31 03:25:01;;;;;;;;;;;;;;;19.73;42.01;100385.78;7280493;19;151772;-57
2022/03/31 03:27:28;;;;;;;;;;;;;;;19.71;41.95;100390.91;7279705;19;152664;-58
2022/03/31 03:29:55;;;;;;;;;;;;;;;19.68;41.92;100392.34;7279003;19;153608;-57
2022/03/31 03:32:22;;;;;;;;;;;;;;;19.69;42.24;100393.19;7280634;19;151847;-56
2022/03/31 03:34:49;;;;;;;;;;;;;;;19.66;42.43;100394.66;7277567;19;153440;-57
2022/03/31 03:37:15;;;;;;;;;;;;;;;19.65;42.28;100398.59;7287015;19;153768;-57
2022/03/31 03:39:44;;;;;;;;;;;;;;;19.65;42.19;100394.97;7278196;19;153397;-57
2022/03/31 03:42:11;;;;;;;;;;;;;;;19.61;42.18;100396.75;7279190;19;153353;-65
2022/03/31 03:44:38;;;;;;;;;;;;;;;19.61;42.38;100389.16;7278863;19;152654;-58
2022/03/31 03:47:05;;;;;;;;;;;;;;;19.57;42.41;100390.13;7280533;19;152705;-58
2022/03/31 03:49:32;;;;;;;;;;;;;;;19.54;42.11;100391.56;7275348;19;154272;-59
2022/03/31 03:51:59;;;;;;;;;;;;;;;19.49;42.30;100395.31;7280233;19;152012;-59
2022/03/31 03:54:27;;;;;;;;;;;;;;;19.53;42.41;100385.13;7279873;19;152771;-57
2022/03/31 03:56:53;;;;;;;;;;;;;;;19.49;42.64;100403.72;7279170;19;153444;-57
2022/03/31 03:59:20;;;;;;;;;;;;;;;19.52;42.26;100396.66;7286788;19;151805;-57
2022/03/31 04:01:47;;;;;;;;;;;;;;;19.47;42.36;100396.78;7277728;19;153397;-57
2022/03/31 04:04:14;;;;;;;;;;;;;;;19.47;42.45;100405.19;7279477;19;151787;-56
2022/03/31 04:06:41;;;;;;;;;;;;;;;19.46;42.18;100403.53;7279998;19;152668;-56
2022/03/31 04:09:07;;;;;;;;;;;;;;;19.47;42.82;100405.19;7277742;19;154128;-57
2022/03/31 04:11:34;;;;;;;;;;;;;;;19.48;42.98;100399.28;7279502;19;151765;-56
2022/03/31 04:14:00;;;;;;;;;;;;;;;19.53;42.85;100395.53;7276320;19;153297;-57
2022/03/31 04:16:29;;;;;;;;;;;;;;;19.56;42.94;100399.66;7277096;19;153070;-57
2022/03/31 04:18:56;;;;;;;;;;;;;;;19.59;42.64;100402.66;7278898;19;151713;-57
2022/03/31 04:21:23;;;;;;;;;;;;;;;19.67;43.12;100406.72;7279474;19;154073;-57
2022/03/31 04:23:50;;;;;;;;;;;;;;;19.72;42.78;100410.19;7279507;19;152342;-57
2022/03/31 04:26:16;;;;;;;;;;;;;;;19.78;42.89;100408.09;7276222;19;152995;-57
2022/03/31 04:28:44;;;;;;;;;;;;;;;19.84;43.65;100401.25;7277618;19;152616;-57
2022/03/31 04:31:11;;;;;;;;;;;;;;;19.92;43.79;100408.88;7277629;19;153519;-57
2022/03/31 04:33:38;;;;;;;;;;;;;;;19.99;43.89;100407.28;7276536;19;154115;-57
2022/03/31 04:36:05;;;;;;;;;;;;;;;20.06;43.70;100404.06;7276440;19;153215;-57
2022/03/31 04:38:31;;;;;;;;;;;;;;;20.14;43.49;100408.06;7278813;19;152003;-57
2022/03/31 04:40:58;;;;;;;;;;;;;;;20.22;43.90;100404.47;7280838;19;153464;-57
2022/03/31 04:43:25;;;;;;;;;;;;;;;20.28;43.75;100401.25;7277392;19;152019;-57
2022/03/31 04:45:51;;;;;;;;;;;;;;;20.36;43.72;100405.28;7276302;19;153955;-57
2022/03/31 04:48:18;;;;;;;;;;;;;;;20.43;43.81;100402.84;7277189;19;153934;-57
2022/03/31 04:50:45;;;;;;;;;;;;;;;20.49;43.93;100406.38;7275459;19;151913;-57
2022/03/31 04:53:12;;;;;;;;;;;;;;;20.56;43.61;100403.91;7278239;19;152083;-58
2022/03/31 04:55:39;;;;;;;;;;;;;;;20.63;43.01;100409.88;7276025;19;154317;-57
2022/03/31 04:58:06;;;;;;;;;;;;;;;20.68;43.10;100402.16;7278608;19;152056;-58
2022/03/31 05:00:33;;;;;;;;;;;;;;;20.73;43.15;100407.63;7275898;19;153221;-58
2022/03/31 05:03:00;;;;;;;;;;;;;;;20.77;43.06;100399.38;7283867;19;153857;-58
2022/03/31 05:05:26;;;;;;;;;;;;;;;20.83;42.44;100400.91;7277065;19;153538;-58
2022/03/31 05:07:54;;;;;;;;;;;;;;;20.88;43.13;100409.19;7274160;19;154323;-58
2022/03/31 05:10:20;;;;;;;;;;;;;;;20.94;42.96;100405.06;7277177;19;152001;-58
2022/03/31 05:12:47;;;;;;;;;;;;;;;21.00;42.80;100406.59;7275407;19;153037;-57
2022/03/31 05:15:14;;;;;;;;;;;;;;;21.05;42.38;100411.22;7276049;19;153934;-57
2022/03/31 05:17:43;;;;;;;;;;;;;;;21.09;42.34;100401.00;7271770;19;151705;-57
2022/03/31 05:20:11;;;;;;;;;;;;;;;21.14;42.29;100410.13;7277037;19;153036;-57
2022/03/31 05:22:39;;;;;;;;;;;;;;;21.18;42.37;100401.88;7276547;19;153276;-57
2022/03/31 05:25:07;;;;;;;;;;;;;;;21.22;42.10;100406.53;7283544;19;152569;-57
2022/03/31 05:27:39;;;;;;;;;;;;;;;21.28;41.66;100412.81;7276071;19;154228;-57
2022/03/31 05:30:06;;;;;;;;;;;;;;;21.33;41.93;100412.69;7276314;19;152538;-57
2022/03/31 05:32:33;;;;;;;;;;;;;;;21.35;42.43;100413.16;7277631;19;152620;-57
2022/03/31 05:35:00;;;;;;;;;;;;;;;21.41;42.62;100411.03;7275655;19;152504;-57
2022/03/31 05:37:26;;;;;;;;;;;;;;;21.44;42.28;100418.81;7276750;19;151908;-57
2022/03/31 05:39:53;;;;;;;;;;;;;;;21.47;42.39;100421.81;7276417;19;152613;-57
2022/03/31 05:42:20;;;;;;;;;;;;;;;21.51;41.85;100405.09;7274493;19;155052;-57
2022/03/31 05:44:46;;;;;;;;;;;;;;;21.54;42.21;100422.13;7274191;19;151893;-57
2022/03/31 05:47:13;;;;;;;;;;;;;;;21.56;41.96;100422.66;7281555;19;152723;-57
2022/03/31 05:49:40;;;;;;;;;;;;;;;21.60;41.77;100437.69;7273505;19;152286;-57
2022/03/31 05:52:06;;;;;;;;;;;;;;;21.62;41.71;100424.13;7275380;19;153341;-57
2022/03/31 05:54:33;;;;;;;;;;;;;;;21.66;41.35;100425.16;7281252;19;154051;-58
2022/03/31 05:57:00;;;;;;;;;;;;;;;21.68;41.50;100428.44;7282571;19;151966;-57
2022/03/31 05:59:26;;;;;;;;;;;;;;;21.72;41.63;100422.97;7282601;19;153195;-57
2022/03/31 06:01:53;;;;;;;;;;;;;;;21.74;41.74;100427.13;7280486;19;153185;-57
2022/03/31 06:04:21;;;;;;;;;;;;;;;21.78;41.80;100427.31;7282273;19;151714;-57
2022/03/31 06:06:48;;;;;;;;;;;;;;;21.83;41.79;100427.13;7281857;19;153381;-57
2022/03/31 06:09:15;;;;;;;;;;;;;;;21.85;41.51;100438.88;7286837;19;153963;-57
2022/03/31 06:11:42;;;;;;;;;;;;;;;21.87;41.67;100433.75;7280585;19;153785;-57
2022/03/31 06:14:09;;;;;;;;;;;;;;;21.91;41.69;100440.38;7278467;19;154426;-57
2022/03/31 06:16:37;;;;;;;;;;;;;;;21.97;42.41;100446.72;7281902;19;151686;-57
2022/03/31 06:19:04;;;;;;;;;;;;;;;22.02;41.77;100453.00;7280085;19;153987;-57
2022/03/31 06:21:31;;;;;;;;;;;;;;;22.08;41.32;100453.63;7280155;19;153755;-58
2022/03/31 06:23:58;;;;;;;;;;;;;;;22.12;41.47;100457.47;7282156;19;151979;-58
2022/03/31 06:26:29;;;;;;;;;;;;;;;22.14;41.07;100452.31;7281236;19;153302;-59
2022/03/31 06:28:56;;;;;;;;;;;;;;;22.15;39.90;100448.34;7280847;19;153966;-59
2022/03/31 06:31:23;;;;;;;;;;;;;;;22.16;39.38;100450.03;7288449;19;152125;-59
2022/03/31 06:33:50;;;;;;;;;;;;;;;22.15;38.70;100445.53;7280707;19;153350;-58
2022/03/31 06:36:19;;;;;;;;;;;;;;;22.16;38.30;100462.13;7281808;19;152422;-58
2022/03/31 06:38:49;;;;;;;;;;;;;;;22.18;38.22;100458.94;7280659;19;152705;-59
2022/03/31 06:41:17;;;;;;;;;;;;;;;22.20;37.69;100467.91;7277239;19;154297;-59
2022/03/31 06:43:45;;;;;;;;;;;;;;;22.19;37.85;100466.22;7279766;19;151761;-58
2022/03/31 06:46:13;;;;;;;;;;;;;;;22.21;37.16;100469.56;7280555;19;153254;-59
2022/03/31 06:48:43;;;;;;;;;;;;;;;22.22;37.19;100467.53;7277318;19;154346;-59
2022/03/31 06:51:10;;;;;;;;;;;;;;;22.21;37.36;100455.50;7285252;19;152103;-58
2022/03/31 06:53:37;;;;;;;;;;;;;;;22.24;36.59;100462.44;7279922;19;154901;-57
2022/03/31 06:56:04;;;;;;;;;;;;;;;22.23;36.71;100467.22;7280407;19;152401;-57
2022/03/31 06:58:31;;;;;;;;;;;;;;;22.22;36.30;100481.63;7281422;19;153351;-57
2022/03/31 07:00:58;;;;;;;;;;;;;;;22.18;36.29;100475.81;7277985;19;153762;-57
2022/03/31 07:03:26;;;;;;;;;;;;;;;22.17;35.87;100479.78;7278703;19;151968;-57
2022/03/31 07:05:53;;;;;;;;;;;;;;;22.07;34.75;100480.97;7278574;19;154049;-57
2022/03/31 07:08:20;;;;;;;;;;;;;;;22.05;35.17;100482.44;7278148;19;153277;-57
2022/03/31 07:10:46;;;;;;;;;;;;;;;22.08;34.99;100481.78;7280042;19;151870;-57
2022/03/31 07:13:13;;;;;;;;;;;;;;;22.11;35.00;100479.16;7284780;19;153388;-57
2022/03/31 07:15:40;;;;;;;;;;;;;;;22.09;34.91;100483.44;7280116;19;151750;-57
2022/03/31 07:18:07;;;;;;;;;;;;;;;22.09;34.97;100480.63;7280186;19;152783;-57
2022/03/31 07:20:34;;;;;;;;;;;;;;;22.07;34.78;100478.16;7279713;19;153483;-57
2022/03/31 07:23:02;;;;;;;;;;;;;;;22.04;34.80;100508.91;7280510;19;152171;-57
2022/03/31 07:25:29;;;;;;;;;;;;;;;22.04;35.06;100494.84;7278423;19;152811;-57
2022/03/31 07:27:56;;;;;;;;;;;;;;;22.01;34.89;100487.09;7279752;19;153073;-57
2022/03/31 07:30:23;;;;;;;;;;;;;;;21.99;34.96;100478.97;7280051;19;152176;-57
2022/03/31 07:32:50;;;;;;;;;;;;;;;21.98;35.05;100487.75;7280364;19;154150;-57
2022/03/31 07:35:17;;;;;;;;;;;;;;;21.95;35.13;100496.81;7285535;19;154174;-56
2022/03/31 07:37:44;;;;;;;;;;;;;;;21.93;34.92;100487.91;7280651;19;153138;-57
2022/03/31 07:40:11;;;;;;;;;;;;;;;21.89;35.09;100493.34;7277909;19;153542;-57
2022/03/31 07:42:37;;;;;;;;;;;;;;;21.87;35.01;100490.00;7277911;19;151929;-57
2022/03/31 07:45:04;;;;;;;;;;;;;;;21.85;35.19;100499.94;7278129;19;153533;-58
2022/03/31 07:47:31;;;;;;;;;;;;;;;21.81;34.99;100513.81;7276361;19;152424;-57
2022/03/31 07:49:58;;;;;;;;;;;;;;;21.79;35.36;100499.28;7281569;19;151968;-57
2022/03/31 07:52:25;;;;;;;;;;;;;;;21.74;35.01;100505.88;7269445;19;153084;-57
2022/03/31 07:55:04;;;;;;;;;;;;;;;21.71;35.09;100511.34;7275155;19;154985;-57
2022/03/31 07:57:31;;;;;;;;;;;;;;;21.72;34.85;100518.59;7286709;19;151532;-57
2022/03/31 07:59:58;;;;;;;;;;;;;;;21.64;35.14;100510.97;7278196;19;153269;-58
2022/03/31 08:02:25;;;;;;;;;;;;;;;21.66;35.40;100505.84;7277683;19;151959;-57
2022/03/31 08:04:53;;;;;;;;;;;;;;;21.61;35.61;100503.19;7279259;19;152657;-57
2022/03/31 08:07:21;;;;;;;;;;;;;;;21.55;35.16;100510.13;7277933;19;154172;-57
2022/03/31 08:09:48;;;;;;;;;;;;;;;21.53;35.64;100518.88;7279268;19;151929;-57
2022/03/31 08:12:15;;;;;;;;;;;;;;;21.49;35.16;100522.66;7278070;19;153330;-58
2022/03/31 08:14:41;;;;;;;;;;;;;;;21.44;35.44;100518.00;7276544;19;153564;-57
2022/03/31 08:17:08;;;;;;;;;;;;;;;21.39;35.32;100526.59;7277001;19;152195;-58
2022/03/31 08:19:35;;;;;;;;;;;;;;;21.35;35.25;100516.34;7284255;19;153093;-57
2022/03/31 08:22:02;;;;;;;;;;;;;;;21.31;35.33;100524.56;7274937;19;152037;-57
2022/03/31 08:24:30;;;;;;;;;;;;;;;21.25;35.42;100523.06;7273664;19;153667;-57
2022/03/31 08:27:00;;;;;;;;;;;;;;;21.24;35.02;100524.22;7277041;19;154126;-57
2022/03/31 08:29:27;;;;;;;;;;;;;;;21.34;35.46;100523.94;7277738;19;151943;-58
2022/03/31 08:31:54;;;;;;;;;;;;;;;21.32;35.63;100531.84;7276570;19;153940;-57
2022/03/31 08:34:20;;;;;;;;;;;;;;;21.37;35.42;100536.50;7274367;19;154106;-58
2022/03/31 08:36:47;;;;;;;;;;;;;;;21.32;35.76;100545.91;7279133;19;151547;-59
2022/03/31 08:39:15;;;;;;;;;;;;;;;21.30;35.86;100528.56;7277538;19;153508;-58
2022/03/31 08:41:44;;;;;;;;;;;;;;;21.30;36.02;100534.19;7284134;19;152360;-58
2022/03/31 08:44:13;;;;;;;;;;;;;;;21.33;35.46;100535.50;7278480;19;152971;-57
2022/03/31 08:46:39;;;;;;;;;;;;;;;21.35;35.54;100539.63;7277570;19;154226;-57
2022/03/31 08:49:09;;;;;;;;;;;;;;;21.56;38.48;100535.09;7278267;19;152357;-60
2022/03/31 08:51:36;;;;;;;;;;;;;;;21.48;38.06;100547.16;7277774;19;152715;-58
2022/03/31 08:54:03;;;;;;;;;;;;;;;21.45;37.13;100546.94;7259081;19;154154;-57
2022/03/31 08:56:29;;;;;;;;;;;;;;;21.39;36.84;100551.06;7263288;19;152442;-58
2022/03/31 08:59:16;;;;;;;;;;;;;;;21.32;37.14;100543.09;7276654;19;155561;-58
2022/03/31 09:01:43;;;;;;;;;;;;;;;21.29;37.08;100550.19;7281823;19;153326;-58
2022/03/31 09:04:22;;;;;;;;;;;;;;;21.27;37.22;100554.47;7277770;19;153028;-58
2022/03/31 09:07:00;;;;;;;;;;;;;;;21.24;36.66;100547.53;7275560;19;153722;-58
2022/03/31 09:09:27;;;;;;;;;;;;;;;21.20;36.62;100562.53;7276905;19;152299;-58
2022/03/31 09:11:54;;;;;;;;;;;;;;;21.20;36.70;100579.41;7277177;19;153446;-57
2022/03/31 09:14:41;;;;;;;;;;;;;;;21.15;36.83;100579.53;7275987;19;156048;-57
2022/03/31 09:17:15;;;;;;;;;;;;;;;21.13;36.96;100579.84;7277648;19;151981;-58
2022/03/31 09:19:45;;;;;;;;;;;;;;;21.08;36.65;100579.94;7274343;19;152694;-58
2022/03/31 09:22:11;;;;;;;;;;;;;;;21.10;36.46;100585.25;7275323;19;153140;-57
2022/03/31 09:24:39;;;;;;;;;;;;;;;21.05;36.53;100602.25;7283492;19;152523;-58
2022/03/31 09:27:06;;;;;;;;;;;;;;;20.99;36.66;100592.28;7276000;19;153787;-57
2022/03/31 09:29:33;;;;;;;;;;;;;;;20.97;36.36;100605.81;7282021;19;152583;-58
2022/03/31 09:32:07;;;;;;;;;;;;;;;20.92;36.63;100591.91;7278986;19;153264;-58
2022/03/31 09:34:40;;;;;;;;;;;;;;;20.91;36.51;100596.69;7278922;19;153486;-56
2022/03/31 09:37:07;;;;;;;;;;;;;;;20.86;36.21;100597.66;7283897;19;152280;-57
2022/03/31 09:39:33;;;;;;;;;;;;;;;20.85;36.28;100603.56;7280597;19;151998;-58
2022/03/31 09:42:00;;;;;;;;;;;;;;;20.81;36.28;100596.94;7279805;19;153831;-56
2022/03/31 09:44:28;;;;;;;;;;;;;;;20.82;36.57;100605.06;7281494;19;151730;-57
2022/03/31 09:46:55;;;;;;;;;;;;;;;20.81;36.42;100582.91;7287135;19;151946;-56
2022/03/31 09:49:23;;;;;;;;;;;;;;;20.77;36.66;100607.16;7283324;19;152016;-58
2022/03/31 09:51:51;;;;;;;;;;;;;;;20.74;36.69;100605.81;7281463;19;152528;-57
2022/03/31 09:54:18;;;;;;;;;;;;;;;20.72;36.38;100593.25;7281093;19;153452;-57
2022/03/31 09:56:45;;;;;;;;;;;;;;;20.69;36.62;100605.94;7278224;19;152328;-57
2022/03/31 09:59:13;;;;;;;;;;;;;;;20.69;36.55;100591.91;7277725;19;153538;-56
2022/03/31 10:01:51;;;;;;;;;;;;;;;20.69;36.67;100600.34;7278034;19;154075;-57
2022/03/31 10:04:19;;;;;;;;;;;;;;;20.68;36.30;100590.25;7280551;19;152183;-57
2022/03/31 10:06:53;;;;;;;;;;;;;;;20.64;36.70;100599.63;7281349;19;152237;-57
2022/03/31 10:09:20;;;;;;;;;;;;;;;20.57;36.43;100591.66;7288631;19;153615;-57
2022/03/31 10:11:48;;;;;;;;;;;;;;;20.55;36.44;100588.31;7282391;19;153391;-57
2022/03/31 10:14:18;;;;;;;;;;;;;;;20.50;36.80;100601.63;7278391;19;152357;-57
2022/03/31 10:16:48;;;;;;;;;;;;;;;20.50;36.50;100610.06;7280052;19;152279;-57
2022/03/31 10:19:28;;;;;;;;;;;;;;;20.51;36.39;100609.75;7276232;19;154948;-58
2022/03/31 10:21:59;;;;;;;;;;;;;;;20.51;36.97;100632.22;7277087;19;153609;-58
2022/03/31 10:24:41;;;;;;;;;;;;;;;20.53;36.49;100613.09;7277601;19;151968;-56
2022/03/31 10:27:09;;;;;;;;;;;;;;;20.58;36.42;100603.72;7278052;19;153431;-57
2022/03/31 10:29:40;;;;;;;;;;;;;;;20.63;36.77;100597.94;7276171;19;152328;-56
2022/03/31 10:32:14;;;;;;;;;;;;;;;20.69;36.49;100600.34;7286088;19;152490;-57
2022/03/31 10:34:44;;;;;;;;;;;;;;;20.72;36.26;100618.50;7277533;19;153627;-56
2022/03/31 10:37:11;;;;;;;;;;;;;;;20.75;36.42;100607.50;7278761;19;152252;-57
2022/03/31 10:39:38;;;;;;;;;;;;;;;20.80;36.30;100618.56;7275512;19;153232;-57
2022/03/31 10:42:10;;;;;;;;;;;;;;;20.82;36.32;100613.47;7277362;19;153391;-57
2022/03/31 10:44:37;;;;;;;;;;;;;;;20.87;36.15;100615.34;7274635;19;152230;-57
2022/03/31 10:47:05;;;;;;;;;;;;;;;20.94;36.46;100612.88;7278826;19;153319;-57
2022/03/31 10:49:32;;;;;;;;;;;;;;;21.00;36.14;100616.41;7279112;19;153854;-57
2022/03/31 10:52:11;;;;;;;;;;;;;;;21.05;36.30;100611.50;7287633;19;152136;-58
2022/03/31 10:54:37;;;;;;;;;;;;;;;21.13;36.43;100593.06;7279094;19;154335;-57
2022/03/31 10:57:09;;;;;;;;;;;;;;;21.18;36.11;100616.25;7279584;19;151973;-57
2022/03/31 10:59:36;;;;;;;;;;;;;;;21.24;35.77;100612.16;7277212;19;153664;-57
2022/03/31 11:02:12;;;;;;;;;;;;;;;21.30;36.04;100616.47;7279012;19;154336;-57
2022/03/31 11:04:45;;;;;;;;;;;;;;;21.35;35.37;100611.88;7281197;19;152172;-57
2022/03/31 11:07:13;;;;;;;;;;;;;;;21.39;35.72;100618.53;7280624;19;152779;-58
2022/03/31 11:09:42;;;;;;;;;;;;;;;21.42;35.66;100615.88;7280394;19;153326;-57
2022/03/31 11:12:23;;;;;;;;;;;;;;;21.45;35.73;100605.97;7280907;19;152013;-58
2022/03/31 11:14:56;;;;;;;;;;;;;;;21.46;35.29;100605.66;7286717;19;154128;-57
2022/03/31 11:17:23;;;;;;;;;;;;;;;21.50;35.50;100603.03;7280181;19;152103;-57
2022/03/31 11:19:50;;;;;;;;;;;;;;;21.51;35.88;100596.25;7280662;19;152999;-58
2022/03/31 11:22:21;;;;;;;;;;;;;;;21.55;35.18;100608.50;7278676;19;153280;-57
2022/03/31 11:24:50;;;;;;;;;;;;;;;21.56;35.67;100615.78;7279890;19;151982;-57
2022/03/31 11:27:29;;;;;;;;;;;;;;;21.58;35.31;100608.69;7277987;19;152141;-58
2022/03/31 11:29:58;;;;;;;;;;;;;;;21.60;35.09;100609.19;7277711;19;154835;-57
2022/03/31 11:32:32;;;;;;;;;;;;;;;21.63;34.90;100624.56;7277372;19;151965;-58
2022/03/31 11:34:58;;;;;;;;;;;;;;;21.66;34.79;100618.31;7279584;19;152886;-58
2022/03/31 11:37:26;;;;;;;;;;;;;;;21.71;34.79;100604.13;7284237;19;153430;-57
2022/03/31 11:39:53;;;;;;;;;;;;;;;21.73;35.03;100611.06;7279055;19;153757;-56
2022/03/31 11:42:21;;;;;;;;;;;;;;;21.77;34.83;100608.44;7278382;19;154383;-58
2022/03/31 11:44:47;;;;;;;;;;;;;;;21.81;34.91;100611.41;7278860;19;151825;-57
2022/03/31 11:47:21;;;;;;;;;;;;;;;21.80;34.61;100613.44;7278320;19;152689;-57
2022/03/31 11:49:58;;;;;;;;;;;;;;;21.80;34.96;100618.22;7278459;19;153264;-58
2022/03/31 11:52:28;;;;;;;;;;;;;;;21.78;34.87;100624.16;7277013;19;152592;-57
2022/03/31 11:54:58;;;;;;;;;;;;;;;21.81;34.64;100625.47;7278704;19;152633;-57
2022/03/31 11:57:25;;;;;;;;;;;;;;;21.81;34.40;100623.50;7278326;19;153899;-57
2022/03/31 11:59:51;;;;;;;;;;;;;;;21.83;34.40;100631.63;7281755;19;152277;-58
2022/03/31 12:02:18;;;;;;;;;;;;;;;21.82;34.55;100625.16;7276550;19;154018;-56
2022/03/31 12:04:46;;;;;;;;;;;;;;;21.81;34.69;100626.31;7278031;19;153732;-56
2022/03/31 12:07:14;;;;;;;;;;;;;;;21.81;34.34;100612.25;7278622;19;153398;-58
2022/03/31 12:09:44;;;;;;;;;;;;;;;21.79;34.38;100616.56;7276512;19;154005;-58
2022/03/31 12:12:14;;;;;;;;;;;;;;;21.75;34.16;100616.38;7279101;19;152393;-58
2022/03/31 12:14:51;;;;;;;;;;;;;;;21.75;34.71;100641.69;7275671;19;152407;-58
2022/03/31 12:17:19;;;;;;;;;;;;;;;21.77;34.56;100624.47;7277342;19;154282;-58
2022/03/31 12:19:45;;;;;;;;;;;;;;;21.79;34.32;100616.56;7278840;19;152226;-57
2022/03/31 12:22:12;;;;;;;;;;;;;;;21.77;34.07;100633.75;7284349;19;153763;-58
2022/03/31 12:24:46;;;;;;;;;;;;;;;21.78;34.33;100632.59;7275541;19;151959;-58
2022/03/31 12:27:14;;;;;;;;;;;;;;;21.78;34.33;100637.38;7277886;19;153538;-58
2022/03/31 12:29:41;;;;;;;;;;;;;;;21.77;34.04;100632.91;7277627;19;153710;-57
2022/03/31 12:32:09;;;;;;;;;;;;;;;21.76;34.44;100617.22;7277883;19;152454;-56